Time;durP1;ratioP1;P1;durP2;ratioP2;P2;SDS_P1;SDS_P2;PMS_P1;PMS_P2;Temp;Humidity;BMP_temperature;BMP_pressure;BME280_temperature;BME280_humidity;BME280_pressure;Samples;Min_cycle;Max_cycle;Signal;HPM_P1;HPM_P2
2023/10/13 00:07:34;;;;;;;22.23;14.68;;;17.20;99.90;;;;;;20279242;29;20071;-87
2023/10/13 00:17:38;;;;;;;23.55;13.43;;;17.30;99.90;;;;;;20272349;29;20063;-83
2023/10/13 00:27:41;;;;;;;19.75;13.02;;;17.20;99.90;;;;;;20270857;29;20056;-84
2023/10/13 00:37:44;;;;;;;20.95;12.60;;;17.20;99.90;;;;;;20266729;29;20067;-83
2023/10/13 00:47:49;;;;;;;27.98;16.10;;;17.20;99.90;;;;;;20274031;29;20055;-83
2023/10/13 00:57:54;;;;;;;29.92;17.05;;;17.10;99.90;;;;;;20275016;29;20195;-83
2023/10/13 01:07:54;;;;;;;28.70;16.83;;;17.10;99.90;;;;;;20272052;29;20595;-83
2023/10/13 01:18:11;;;;;;;26.20;15.82;;;17.20;99.90;;;;;;20286597;29;20044;-83
2023/10/13 01:28:18;;;;;;;25.60;15.43;;;17.10;99.90;;;;;;20265792;29;20052;-83
2023/10/13 01:38:19;;;;;;;23.37;14.47;;;17.10;99.90;;;;;;20265272;29;20055;-83
2023/10/13 01:48:21;;;;;;;21.55;14.18;;;17.10;99.90;;;;;;20282327;29;20052;-83
2023/10/13 01:58:22;;;;;;;20.55;13.07;;;17.10;99.90;;;;;;20266519;29;20413;-83
2023/10/13 02:08:24;;;;;;;24.45;12.20;;;17.10;99.90;;;;;;20268032;29;20055;-83
2023/10/13 02:18:28;;;;;;;19.63;11.77;;;17.10;99.90;;;;;;20270443;29;20044;-83
2023/10/13 02:28:33;;;;;;;21.55;11.40;;;17.20;99.90;;;;;;20268633;29;20055;-82
2023/10/13 02:38:42;;;;;;;16.40;10.77;;;17.20;99.90;;;;;;20266805;29;20044;-85
2023/10/13 02:48:46;;;;;;;19.55;10.98;;;17.00;99.90;;;;;;20280364;29;20054;-85
2023/10/13 02:59:04;;;;;;;15.20;10.43;;;17.00;99.90;;;;;;20267869;29;20075;-85
2023/10/13 03:09:14;;;;;;;16.48;10.77;;;16.90;99.90;;;;;;20259960;29;21304;-85
2023/10/13 03:19:19;;;;;;;18.58;11.00;;;16.80;99.90;;;;;;20263998;29;20153;-84
2023/10/13 03:29:21;;;;;;;20.85;12.15;;;16.90;99.90;;;;;;20259262;29;20052;-84
2023/10/13 03:39:28;;;;;;;19.25;11.27;;;16.90;99.90;;;;;;20265964;29;20047;-84
2023/10/13 03:49:30;;;;;;;17.95;11.88;;;16.80;99.90;;;;;;20278260;29;20051;-84
2023/10/13 03:59:35;;;;;;;20.05;11.90;;;16.80;99.90;;;;;;20264919;29;20134;-85
2023/10/13 04:20:12;;;;;;;19.08;10.35;;;16.80;99.90;;;;;;20278356;28;20056;-84
2023/10/13 04:40:11;;;;;;;17.02;11.75;;;16.70;99.90;;;;;;20278334;29;20465;-84
2023/10/13 04:50:22;;;;;;;15.63;10.77;;;16.80;99.90;;;;;;20272227;29;20060;-86
2023/10/13 06:28:40;;;;;;;11.85;6.10;;;17.20;99.90;;;;;;20403892;29;20100;-84
2023/10/13 06:33:44;;;;;;;15.10;7.72;;;16.80;99.90;;;;;;20306166;29;20052;-85
2023/10/13 06:43:45;;;;;;;15.10;7.90;;;17.00;99.90;;;;;;20283602;29;20127;-85
2023/10/13 06:53:47;;;;;;;12.50;7.10;;;17.20;99.90;;;;;;20290789;29;20059;-85
2023/10/13 07:03:52;;;;;;;15.98;9.55;;;17.40;99.90;;;;;;20272604;29;20055;-86
2023/10/13 07:13:53;;;;;;;19.02;13.30;;;17.50;99.90;;;;;;20275223;29;20039;-85
2023/10/13 07:24:11;;;;;;;20.58;14.40;;;17.60;99.90;;;;;;20292216;29;20040;-85
2023/10/13 07:34:31;;;;;;;19.57;12.40;;;17.80;99.90;;;;;;20276217;29;20072;-86
2023/10/13 07:44:33;;;;;;;18.10;10.73;;;17.90;99.90;;;;;;20273090;29;20116;-86
2023/10/13 07:54:33;;;;;;;16.10;9.45;;;17.90;99.90;;;;;;20272827;29;20073;-86
2023/10/13 08:04:35;;;;;;;15.30;8.40;;;18.00;99.90;;;;;;20291551;29;20100;-86
2023/10/13 08:14:38;;;;;;;13.93;7.75;;;18.10;99.90;;;;;;20281519;29;20869;-86
2023/10/13 08:44:45;;;;;;;14.13;7.45;;;18.50;99.90;;;;;;20294486;29;20044;-82
2023/10/13 08:55:02;;;;;;;13.65;6.80;;;18.60;99.90;;;;;;20282366;29;20075;-83
2023/10/13 09:05:36;;;;;;;14.10;6.43;;;18.60;99.90;;;;;;20284535;29;20087;-82
2023/10/13 09:15:59;;;;;;;13.63;6.53;;;18.60;99.90;;;;;;20297669;29;20051;-83
2023/10/13 09:25:53;;;;;;;12.93;6.35;;;18.60;99.90;;;;;;20292279;29;20044;-83
2023/10/13 09:35:54;;;;;;;15.63;6.93;;;18.70;99.90;;;;;;20274998;29;20048;-87
2023/10/13 09:46:06;;;;;;;11.73;5.90;;;18.90;89.60;;;;;;20296642;29;20044;-87
2023/10/13 09:56:20;;;;;;;13.80;5.88;;;18.90;81.90;;;;;;20285636;29;20861;-85
2023/10/13 10:06:39;;;;;;;14.27;6.55;;;19.00;38.50;;;;;;20293620;29;20033;-86
2023/10/13 10:17:10;;;;;;;15.27;6.18;;;19.20;31.20;;;;;;20273980;29;20107;-87
2023/10/13 10:27:14;;;;;;;14.93;6.63;;;19.40;16.90;;;;;;20295816;29;20036;-86
2023/10/13 10:37:16;;;;;;;13.20;6.10;;;19.70;7.60;;;;;;20294399;29;20088;-86
2023/10/13 10:47:30;;;;;;;12.70;5.75;;;19.90;4.50;;;;;;20280924;29;20037;-85
2023/10/13 10:57:36;;;;;;;13.60;6.90;;;20.10;1.00;;;;;;20269131;29;20052;-85
2023/10/13 11:07:44;;;;;;;11.77;6.33;;;20.20;1.00;;;;;;20280001;29;20068;-85
2023/10/13 11:17:54;;;;;;;18.73;6.20;;;20.20;1.00;;;;;;20293975;29;20036;-85
2023/10/13 11:27:56;;;;;;;16.67;6.22;;;20.20;1.00;;;;;;20280511;29;20048;-85
2023/10/13 11:38:03;;;;;;;12.27;5.78;;;20.30;1.00;;;;;;20290623;29;20785;-85
2023/10/13 11:48:12;;;;;;;13.45;6.25;;;20.50;1.00;;;;;;20287612;29;20052;-85
2023/10/13 11:58:17;;;;;;;11.45;6.05;;;20.60;1.00;;;;;;20271972;29;20042;-85
2023/10/13 12:08:22;;;;;;;12.98;5.50;;;20.70;1.00;;;;;;20279458;29;20737;-85
2023/10/13 12:18:23;;;;;;;14.65;5.70;;;20.80;1.00;;;;;;20274160;29;20047;-86
2023/10/13 12:28:26;;;;;;;11.90;6.10;;;20.80;1.00;;;;;;20267937;29;20056;-84
2023/10/13 12:38:50;;;;;;;13.73;5.60;;;20.90;1.00;;;;;;20270703;29;20050;-82
2023/10/13 12:59:13;;;;;;;14.80;6.10;;;20.90;1.00;;;;;;20286429;29;20036;-85
2023/10/13 13:09:14;;;;;;;18.88;7.00;;;20.80;1.00;;;;;;20285861;29;20044;-85
2023/10/13 13:19:23;;;;;;;13.63;7.38;;;20.50;1.00;;;;;;20289891;29;20048;-84
2023/10/13 13:29:25;;;;;;;13.55;7.10;;;20.40;1.00;;;;;;20286920;29;20044;-85
2023/10/13 13:39:31;;;;;;;15.25;6.45;;;20.20;1.00;;;;;;20289501;29;20396;-85
2023/10/13 13:49:39;;;;;;;16.73;7.15;;;20.10;1.00;;;;;;20274260;29;20053;-85
2023/10/13 13:59:44;;;;;;;16.90;7.60;;;20.30;1.00;;;;;;20291740;29;20053;-84
2023/10/13 14:09:51;;;;;;;15.95;7.18;;;20.30;1.00;;;;;;20276901;29;20091;-85
2023/10/13 14:19:51;;;;;;;16.08;8.02;;;19.80;1.00;;;;;;20281929;29;20181;-84
2023/10/13 14:29:52;;;;;;;14.68;6.82;;;18.80;94.80;;;;;;20272988;29;20048;-81
2023/10/13 14:39:56;;;;;;;11.77;4.30;;;18.50;99.90;;;;;;20272557;29;20056;-82
2023/10/13 14:49:59;;;;;;;10.63;4.10;;;18.30;99.90;;;;;;20269596;29;20476;-81
2023/10/13 15:00:02;;;;;;;12.65;3.97;;;18.30;99.90;;;;;;20282972;29;20040;-81
2023/10/13 15:10:03;;;;;;;13.23;4.57;;;18.30;99.90;;;;;;20268847;29;21150;-84
2023/10/13 15:20:08;;;;;;;17.23;4.88;;;18.20;99.90;;;;;;20279572;29;20513;-82
2023/10/13 15:30:19;;;;;;;13.70;5.40;;;18.20;99.90;;;;;;20269895;29;20052;-82
2023/10/13 15:40:21;;;;;;;19.92;7.78;;;18.10;99.90;;;;;;20271765;29;20049;-81
2023/10/13 15:50:21;;;;;;;19.38;8.05;;;18.20;99.90;;;;;;20271256;29;20456;-81
2023/10/13 16:00:25;;;;;;;15.45;6.97;;;18.20;99.90;;;;;;20269910;29;20052;-83
2023/10/13 16:10:26;;;;;;;20.48;7.85;;;18.20;99.90;;;;;;20277702;29;20536;-80
2023/10/13 16:20:27;;;;;;;16.58;8.38;;;18.10;99.90;;;;;;20267979;29;20048;-81
2023/10/13 16:30:28;;;;;;;17.15;8.43;;;18.00;99.90;;;;;;20292321;29;20048;-80
2023/10/13 16:40:29;;;;;;;17.83;9.35;;;18.00;99.90;;;;;;20309286;29;20448;-80
2023/10/13 16:50:31;;;;;;;18.88;8.75;;;18.00;99.90;;;;;;20337413;29;20056;-81
2023/10/13 17:00:33;;;;;;;17.15;8.52;;;18.10;99.90;;;;;;20358496;29;20076;-81
2023/10/13 17:10:37;;;;;;;20.40;9.27;;;18.10;99.90;;;;;;20391761;29;20146;-82
2023/10/13 17:20:39;;;;;;;24.25;9.48;;;18.10;99.90;;;;;;20341332;29;20084;-81
2023/10/13 17:30:49;;;;;;;18.42;9.75;;;17.90;99.90;;;;;;20192150;29;21163;-82
2023/10/13 17:40:49;;;;;;;18.83;9.20;;;17.80;99.90;;;;;;20217114;29;20064;-82
2023/10/13 17:50:50;;;;;;;20.25;10.18;;;17.80;99.90;;;;;;20216613;29;20048;-82
2023/10/13 18:00:50;;;;;;;19.25;11.27;;;17.80;99.90;;;;;;20222839;29;20044;-83
2023/10/13 18:10:55;;;;;;;15.52;9.38;;;17.80;99.90;;;;;;20213712;29;20581;-84
2023/10/13 18:21:02;;;;;;;19.92;10.15;;;17.80;99.90;;;;;;20196115;29;20049;-84
2023/10/13 18:31:07;;;;;;;;;;;17.80;99.90;;;;;;20132209;29;20057;-84
2023/10/13 18:41:11;;;;;;;19.40;8.52;;;17.90;99.90;;;;;;20128607;29;19924;-84
2023/10/13 18:51:16;;;;;;;16.13;8.05;;;17.90;99.90;;;;;;20131100;29;20037;-85
2023/10/13 19:01:24;;;;;;;19.63;7.13;;;17.90;99.90;;;;;;20127607;29;20486;-83
2023/10/13 19:11:25;;;;;;;16.55;7.80;;;18.00;99.90;;;;;;20135692;29;20438;-84
2023/10/13 19:21:25;;;;;;;16.10;7.70;;;18.10;99.90;;;;;;20140286;29;20404;-84
2023/10/13 19:31:28;;;;;;;22.65;11.60;;;18.00;99.90;;;;;;20265585;29;20048;-83
2023/10/13 19:41:33;;;;;;;21.52;12.38;;;18.10;99.90;;;;;;20260093;29;20044;-81
2023/10/13 19:51:34;;;;;;;19.70;12.50;;;18.20;99.90;;;;;;20259493;29;20060;-81
2023/10/13 20:01:35;;;;;;;22.33;12.93;;;18.30;99.90;;;;;;20259710;29;20048;-81
2023/10/13 20:11:35;;;;;;;20.57;12.63;;;18.20;99.90;;;;;;20259092;29;20468;-81
2023/10/13 20:21:36;;;;;;;13.17;7.20;;;18.30;99.90;;;;;;20265578;29;21295;-80
2023/10/13 20:31:36;;;;;;;7.35;4.60;;;17.70;99.90;;;;;;20270479;29;20180;-81
2023/10/13 20:41:37;;;;;;;11.27;4.45;;;17.00;99.90;;;;;;20277417;29;20108;-84
2023/10/13 20:51:41;;;;;;;8.90;5.22;;;16.70;99.90;;;;;;20272685;29;20752;-82
2023/10/13 21:01:42;;;;;;;10.73;6.80;;;16.60;99.90;;;;;;20273896;29;20055;-84
2023/10/13 21:11:42;;;;;;;10.40;6.68;;;16.80;99.90;;;;;;20268462;29;21157;-84
2023/10/13 21:21:43;;;;;;;13.98;8.60;;;16.90;99.90;;;;;;20286712;29;20127;-84
2023/10/13 21:31:44;;;;;;;16.88;8.73;;;17.10;99.90;;;;;;20278927;29;20049;-84
2023/10/13 21:41:45;;;;;;;16.88;7.32;;;17.30;99.90;;;;;;20280328;29;20390;-84
2023/10/13 21:51:46;;;;;;;9.55;1.40;;;17.40;99.90;;;;;;20273825;29;20060;-83
2023/10/13 22:01:46;;;;;;;7.20;1.10;;;16.50;99.90;;;;;;20270938;29;20087;-82
2023/10/13 22:11:48;;;;;;;5.18;1.00;;;15.60;99.90;;;;;;20260414;29;20800;-83
2023/10/13 22:21:51;;;;;;;6.43;1.33;;;15.30;99.90;;;;;;20272547;29;20529;-83
2023/10/13 22:31:53;;;;;;;5.53;0.73;;;15.10;99.90;;;;;;20264537;29;20052;-83
2023/10/13 22:41:54;;;;;;;2.05;0.20;;;14.80;99.90;;;;;;20265249;29;20872;-83
2023/10/13 22:51:54;;;;;;;2.72;0.30;;;14.60;99.90;;;;;;20257995;29;20052;-83
2023/10/13 23:01:58;;;;;;;5.18;0.30;;;14.60;99.90;;;;;;20262349;29;20090;-82
2023/10/13 23:12:05;;;;;;;2.00;0.30;;;14.50;99.90;;;;;;20237879;29;20044;-82
2023/10/13 23:22:05;;;;;;;2.13;0.40;;;14.50;99.90;;;;;;20272294;29;20111;-82
2023/10/13 23:32:07;;;;;;;4.63;0.52;;;14.50;99.90;;;;;;20253640;29;20447;-82
2023/10/13 23:42:07;;;;;;;3.90;0.60;;;14.50;99.90;;;;;;20261774;29;20425;-82
2023/10/13 23:52:08;;;;;;;7.55;1.50;;;14.50;99.90;;;;;;20256040;29;20048;-82
